sensor_id;sensor_type;location;lat;lon;timestamp;P1;durP1;ratioP1;P2;durP2;ratioP2
8171;SDS011;4127;47.908;10.850;2024-03-08T00:01:31;20.67;;;15.53;;
8171;SDS011;4127;47.908;10.850;2024-03-08T00:04:03;19.03;;;15.57;;
8171;SDS011;4127;47.908;10.850;2024-03-08T00:07:04;18.87;;;15.27;;
8171;SDS011;4127;47.908;10.850;2024-03-08T00:09:32;20.73;;;16.00;;
8171;SDS011;4127;47.908;10.850;2024-03-08T00:12:09;20.10;;;16.07;;
8171;SDS011;4127;47.908;10.850;2024-03-08T00:14:37;18.23;;;15.47;;
8171;SDS011;4127;47.908;10.850;2024-03-08T00:17:07;17.77;;;13.73;;
8171;SDS011;4127;47.908;10.850;2024-03-08T00:19:36;15.57;;;12.53;;
8171;SDS011;4127;47.908;10.850;2024-03-08T00:22:03;16.80;;;13.77;;
8171;SDS011;4127;47.908;10.850;2024-03-08T00:24:57;16.27;;;13.47;;
8171;SDS011;4127;47.908;10.850;2024-03-08T00:27:28;16.73;;;13.77;;
8171;SDS011;4127;47.908;10.850;2024-03-08T00:30:01;16.40;;;13.17;;
8171;SDS011;4127;47.908;10.850;2024-03-08T00:32:29;17.87;;;14.20;;
8171;SDS011;4127;47.908;10.850;2024-03-08T00:34:58;16.37;;;13.20;;
8171;SDS011;4127;47.908;10.850;2024-03-08T00:37:31;17.97;;;13.60;;
8171;SDS011;4127;47.908;10.850;2024-03-08T00:39:58;15.20;;;12.90;;
8171;SDS011;4127;47.908;10.850;2024-03-08T00:42:30;16.57;;;14.20;;
8171;SDS011;4127;47.908;10.850;2024-03-08T00:44:57;17.00;;;14.40;;
8171;SDS011;4127;47.908;10.850;2024-03-08T00:47:27;15.20;;;12.80;;
8171;SDS011;4127;47.908;10.850;2024-03-08T00:50:11;16.07;;;13.60;;
8171;SDS011;4127;47.908;10.850;2024-03-08T00:52:47;16.40;;;14.07;;
8171;SDS011;4127;47.908;10.850;2024-03-08T00:55:17;18.20;;;14.90;;
8171;SDS011;4127;47.908;10.850;2024-03-08T00:57:44;17.47;;;13.87;;
8171;SDS011;4127;47.908;10.850;2024-03-08T01:00:17;19.37;;;15.00;;
8171;SDS011;4127;47.908;10.850;2024-03-08T01:02:50;16.07;;;13.43;;
8171;SDS011;4127;47.908;10.850;2024-03-08T01:05:18;17.37;;;14.53;;
8171;SDS011;4127;47.908;10.850;2024-03-08T01:07:45;15.70;;;13.47;;
8171;SDS011;4127;47.908;10.850;2024-03-08T01:10:19;15.87;;;13.47;;
8171;SDS011;4127;47.908;10.850;2024-03-08T01:12:46;17.17;;;13.97;;
8171;SDS011;4127;47.908;10.850;2024-03-08T01:15:14;16.17;;;13.60;;
8171;SDS011;4127;47.908;10.850;2024-03-08T01:17:54;18.43;;;14.57;;
8171;SDS011;4127;47.908;10.850;2024-03-08T01:20:22;17.03;;;14.10;;
8171;SDS011;4127;47.908;10.850;2024-03-08T01:22:53;17.93;;;15.37;;
8171;SDS011;4127;47.908;10.850;2024-03-08T01:25:20;16.03;;;13.83;;
8171;SDS011;4127;47.908;10.850;2024-03-08T01:27:47;17.03;;;14.83;;
8171;SDS011;4127;47.908;10.850;2024-03-08T01:30:20;20.93;;;16.23;;
8171;SDS011;4127;47.908;10.850;2024-03-08T01:33:03;18.93;;;14.80;;
8171;SDS011;4127;47.908;10.850;2024-03-08T01:35:43;19.07;;;16.17;;
8171;SDS011;4127;47.908;10.850;2024-03-08T01:38:28;18.87;;;14.80;;
8171;SDS011;4127;47.908;10.850;2024-03-08T01:41:26;29.07;;;19.37;;
8171;SDS011;4127;47.908;10.850;2024-03-08T01:44:00;27.77;;;19.40;;
8171;SDS011;4127;47.908;10.850;2024-03-08T01:50:05;24.50;;;17.13;;
8171;SDS011;4127;47.908;10.850;2024-03-08T01:52:36;22.37;;;17.37;;
8171;SDS011;4127;47.908;10.850;2024-03-08T01:55:06;21.80;;;16.67;;
8171;SDS011;4127;47.908;10.850;2024-03-08T01:57:34;21.33;;;16.20;;
8171;SDS011;4127;47.908;10.850;2024-03-08T02:00:08;20.97;;;16.77;;
8171;SDS011;4127;47.908;10.850;2024-03-08T02:02:50;21.30;;;16.97;;
8171;SDS011;4127;47.908;10.850;2024-03-08T02:05:21;20.70;;;17.30;;
8171;SDS011;4127;47.908;10.850;2024-03-08T02:07:53;21.53;;;16.83;;
8171;SDS011;4127;47.908;10.850;2024-03-08T02:10:23;23.20;;;16.83;;
8171;SDS011;4127;47.908;10.850;2024-03-08T02:12:53;20.50;;;16.27;;
8171;SDS011;4127;47.908;10.850;2024-03-08T02:16:11;21.13;;;16.30;;
8171;SDS011;4127;47.908;10.850;2024-03-08T02:18:28;21.73;;;17.37;;
8171;SDS011;4127;47.908;10.850;2024-03-08T02:21:05;21.60;;;16.57;;
8171;SDS011;4127;47.908;10.850;2024-03-08T02:23:35;20.23;;;15.13;;
8171;SDS011;4127;47.908;10.850;2024-03-08T02:26:07;23.90;;;17.63;;
8171;SDS011;4127;47.908;10.850;2024-03-08T02:28:36;23.17;;;18.27;;
8171;SDS011;4127;47.908;10.850;2024-03-08T02:31:05;22.67;;;18.37;;
8171;SDS011;4127;47.908;10.850;2024-03-08T02:33:35;25.93;;;19.73;;
8171;SDS011;4127;47.908;10.850;2024-03-08T02:36:27;29.77;;;19.93;;
8171;SDS011;4127;47.908;10.850;2024-03-08T02:38:55;27.00;;;19.90;;
8171;SDS011;4127;47.908;10.850;2024-03-08T02:41:46;27.47;;;20.33;;
8171;SDS011;4127;47.908;10.850;2024-03-08T02:44:16;22.80;;;18.07;;
8171;SDS011;4127;47.908;10.850;2024-03-08T02:46:50;22.67;;;17.00;;
8171;SDS011;4127;47.908;10.850;2024-03-08T02:49:24;24.13;;;19.53;;
8171;SDS011;4127;47.908;10.850;2024-03-08T02:51:57;29.57;;;21.50;;
8171;SDS011;4127;47.908;10.850;2024-03-08T02:54:32;31.73;;;23.13;;
8171;SDS011;4127;47.908;10.850;2024-03-08T02:57:10;26.17;;;19.63;;
8171;SDS011;4127;47.908;10.850;2024-03-08T02:59:38;25.77;;;19.07;;
8171;SDS011;4127;47.908;10.850;2024-03-08T03:02:11;22.50;;;17.27;;
8171;SDS011;4127;47.908;10.850;2024-03-08T03:04:42;22.67;;;16.90;;
8171;SDS011;4127;47.908;10.850;2024-03-08T03:07:18;20.93;;;16.50;;
8171;SDS011;4127;47.908;10.850;2024-03-08T03:09:54;21.57;;;17.03;;
8171;SDS011;4127;47.908;10.850;2024-03-08T03:12:29;28.50;;;18.80;;
8171;SDS011;4127;47.908;10.850;2024-03-08T03:15:00;23.80;;;17.50;;
8171;SDS011;4127;47.908;10.850;2024-03-08T03:17:40;24.20;;;17.97;;
8171;SDS011;4127;47.908;10.850;2024-03-08T03:20:08;43.67;;;24.53;;
8171;SDS011;4127;47.908;10.850;2024-03-08T03:22:39;49.57;;;24.07;;
8171;SDS011;4127;47.908;10.850;2024-03-08T03:25:38;50.37;;;25.73;;
8171;SDS011;4127;47.908;10.850;2024-03-08T03:28:13;34.10;;;23.27;;
8171;SDS011;4127;47.908;10.850;2024-03-08T03:31:06;33.70;;;21.97;;
8171;SDS011;4127;47.908;10.850;2024-03-08T03:33:46;31.53;;;21.87;;
8171;SDS011;4127;47.908;10.850;2024-03-08T03:37:07;44.40;;;23.53;;
8171;SDS011;4127;47.908;10.850;2024-03-08T03:39:29;43.90;;;23.10;;
8171;SDS011;4127;47.908;10.850;2024-03-08T03:42:19;35.33;;;22.97;;
8171;SDS011;4127;47.908;10.850;2024-03-08T03:45:05;40.43;;;23.17;;
8171;SDS011;4127;47.908;10.850;2024-03-08T03:47:57;56.10;;;27.50;;
8171;SDS011;4127;47.908;10.850;2024-03-08T03:50:32;37.97;;;23.20;;
8171;SDS011;4127;47.908;10.850;2024-03-08T03:53:24;68.77;;;27.40;;
8171;SDS011;4127;47.908;10.850;2024-03-08T03:59:15;68.33;;;30.43;;
8171;SDS011;4127;47.908;10.850;2024-03-08T04:02:12;41.80;;;24.23;;
8171;SDS011;4127;47.908;10.850;2024-03-08T04:05:14;42.40;;;24.63;;
8171;SDS011;4127;47.908;10.850;2024-03-08T04:07:45;79.80;;;27.70;;
8171;SDS011;4127;47.908;10.850;2024-03-08T04:10:14;28.80;;;20.47;;
8171;SDS011;4127;47.908;10.850;2024-03-08T04:13:16;27.00;;;19.73;;
8171;SDS011;4127;47.908;10.850;2024-03-08T04:16:09;24.67;;;17.70;;
8171;SDS011;4127;47.908;10.850;2024-03-08T04:18:58;34.67;;;19.90;;
8171;SDS011;4127;47.908;10.850;2024-03-08T04:21:46;21.77;;;16.97;;
8171;SDS011;4127;47.908;10.850;2024-03-08T04:24:15;22.97;;;18.50;;
8171;SDS011;4127;47.908;10.850;2024-03-08T04:26:50;26.07;;;17.97;;
8171;SDS011;4127;47.908;10.850;2024-03-08T04:29:20;26.57;;;18.27;;
8171;SDS011;4127;47.908;10.850;2024-03-08T04:31:48;23.80;;;18.10;;
8171;SDS011;4127;47.908;10.850;2024-03-08T04:34:43;33.57;;;18.90;;
8171;SDS011;4127;47.908;10.850;2024-03-08T04:37:19;41.83;;;22.27;;
8171;SDS011;4127;47.908;10.850;2024-03-08T04:39:57;23.60;;;17.93;;
8171;SDS011;4127;47.908;10.850;2024-03-08T04:42:45;22.93;;;16.47;;
8171;SDS011;4127;47.908;10.850;2024-03-08T04:45:13;43.27;;;21.90;;
8171;SDS011;4127;47.908;10.850;2024-03-08T04:47:45;29.20;;;19.23;;
8171;SDS011;4127;47.908;10.850;2024-03-08T04:50:19;62.17;;;25.27;;
8171;SDS011;4127;47.908;10.850;2024-03-08T04:53:04;66.13;;;25.07;;
8171;SDS011;4127;47.908;10.850;2024-03-08T04:55:53;118.37;;;33.37;;
8171;SDS011;4127;47.908;10.850;2024-03-08T04:58:42;74.17;;;28.33;;
8171;SDS011;4127;47.908;10.850;2024-03-08T05:01:33;112.07;;;32.00;;
8171;SDS011;4127;47.908;10.850;2024-03-08T05:04:22;79.53;;;30.90;;
8171;SDS011;4127;47.908;10.850;2024-03-08T05:07:31;83.03;;;29.13;;
8171;SDS011;4127;47.908;10.850;2024-03-08T05:10:01;56.33;;;25.83;;
8171;SDS011;4127;47.908;10.850;2024-03-08T05:12:38;27.43;;;19.47;;
8171;SDS011;4127;47.908;10.850;2024-03-08T05:15:06;34.67;;;21.43;;
8171;SDS011;4127;47.908;10.850;2024-03-08T05:17:34;59.20;;;24.20;;
8171;SDS011;4127;47.908;10.850;2024-03-08T05:20:26;52.40;;;22.47;;
8171;SDS011;4127;47.908;10.850;2024-03-08T05:23:04;28.13;;;18.70;;
8171;SDS011;4127;47.908;10.850;2024-03-08T05:26:06;24.13;;;17.40;;
8171;SDS011;4127;47.908;10.850;2024-03-08T05:29:34;29.90;;;17.97;;
8171;SDS011;4127;47.908;10.850;2024-03-08T05:32:38;22.27;;;17.30;;
8171;SDS011;4127;47.908;10.850;2024-03-08T05:35:32;25.27;;;17.13;;
8171;SDS011;4127;47.908;10.850;2024-03-08T05:38:04;26.27;;;17.23;;
8171;SDS011;4127;47.908;10.850;2024-03-08T05:40:46;23.30;;;17.17;;
8171;SDS011;4127;47.908;10.850;2024-03-08T05:43:13;24.60;;;17.07;;
8171;SDS011;4127;47.908;10.850;2024-03-08T05:45:43;43.37;;;17.83;;
8171;SDS011;4127;47.908;10.850;2024-03-08T05:48:10;22.90;;;17.17;;
8171;SDS011;4127;47.908;10.850;2024-03-08T05:50:41;28.57;;;17.93;;
8171;SDS011;4127;47.908;10.850;2024-03-08T05:53:10;36.37;;;17.80;;
8171;SDS011;4127;47.908;10.850;2024-03-08T05:56:01;21.70;;;16.37;;
8171;SDS011;4127;47.908;10.850;2024-03-08T05:58:28;20.60;;;16.27;;
8171;SDS011;4127;47.908;10.850;2024-03-08T06:00:58;22.40;;;16.90;;
8171;SDS011;4127;47.908;10.850;2024-03-08T06:03:25;23.67;;;16.57;;
8171;SDS011;4127;47.908;10.850;2024-03-08T06:05:52;21.63;;;16.70;;
8171;SDS011;4127;47.908;10.850;2024-03-08T06:09:01;20.87;;;16.23;;
8171;SDS011;4127;47.908;10.850;2024-03-08T06:11:47;21.80;;;15.77;;
8171;SDS011;4127;47.908;10.850;2024-03-08T06:14:43;20.30;;;15.70;;
8171;SDS011;4127;47.908;10.850;2024-03-08T06:17:40;19.57;;;15.47;;
8171;SDS011;4127;47.908;10.850;2024-03-08T06:21:18;20.83;;;15.90;;
8171;SDS011;4127;47.908;10.850;2024-03-08T06:26:37;19.17;;;14.67;;
8171;SDS011;4127;47.908;10.850;2024-03-08T06:29:13;17.93;;;14.30;;
8171;SDS011;4127;47.908;10.850;2024-03-08T06:32:04;17.37;;;14.47;;
8171;SDS011;4127;47.908;10.850;2024-03-08T06:34:51;16.07;;;12.77;;
8171;SDS011;4127;47.908;10.850;2024-03-08T06:37:24;17.63;;;13.90;;
8171;SDS011;4127;47.908;10.850;2024-03-08T06:40:00;19.73;;;14.67;;
8171;SDS011;4127;47.908;10.850;2024-03-08T06:42:36;19.77;;;14.53;;
8171;SDS011;4127;47.908;10.850;2024-03-08T06:45:23;19.40;;;13.67;;
8171;SDS011;4127;47.908;10.850;2024-03-08T06:48:32;18.43;;;13.73;;
8171;SDS011;4127;47.908;10.850;2024-03-08T06:51:16;15.67;;;13.03;;
8171;SDS011;4127;47.908;10.850;2024-03-08T06:53:44;16.93;;;13.70;;
8171;SDS011;4127;47.908;10.850;2024-03-08T06:56:18;17.77;;;14.07;;
8171;SDS011;4127;47.908;10.850;2024-03-08T06:58:46;20.30;;;15.37;;
8171;SDS011;4127;47.908;10.850;2024-03-08T07:01:21;18.13;;;13.87;;
8171;SDS011;4127;47.908;10.850;2024-03-08T07:04:18;26.80;;;16.50;;
8171;SDS011;4127;47.908;10.850;2024-03-08T07:06:46;29.30;;;17.73;;
8171;SDS011;4127;47.908;10.850;2024-03-08T07:09:16;43.77;;;18.20;;
8171;SDS011;4127;47.908;10.850;2024-03-08T07:12:08;48.17;;;19.20;;
8171;SDS011;4127;47.908;10.850;2024-03-08T07:14:59;43.33;;;18.70;;
8171;SDS011;4127;47.908;10.850;2024-03-08T07:17:26;62.63;;;23.10;;
8171;SDS011;4127;47.908;10.850;2024-03-08T07:20:15;40.30;;;21.03;;
8171;SDS011;4127;47.908;10.850;2024-03-08T07:22:56;58.33;;;21.97;;
8171;SDS011;4127;47.908;10.850;2024-03-08T07:25:51;78.83;;;23.20;;
8171;SDS011;4127;47.908;10.850;2024-03-08T07:28:41;45.27;;;18.50;;
8171;SDS011;4127;47.908;10.850;2024-03-08T07:31:27;25.53;;;15.33;;
8171;SDS011;4127;47.908;10.850;2024-03-08T07:34:42;37.63;;;16.80;;
8171;SDS011;4127;47.908;10.850;2024-03-08T07:40:50;40.10;;;19.87;;
8171;SDS011;4127;47.908;10.850;2024-03-08T07:47:20;20.20;;;14.60;;
8171;SDS011;4127;47.908;10.850;2024-03-08T07:50:09;21.23;;;14.30;;
8171;SDS011;4127;47.908;10.850;2024-03-08T07:52:49;17.57;;;13.60;;
8171;SDS011;4127;47.908;10.850;2024-03-08T07:55:17;18.67;;;13.70;;
8171;SDS011;4127;47.908;10.850;2024-03-08T07:57:50;20.50;;;13.40;;
8171;SDS011;4127;47.908;10.850;2024-03-08T08:00:18;18.97;;;14.47;;
8171;SDS011;4127;47.908;10.850;2024-03-08T08:02:48;14.43;;;11.57;;
8171;SDS011;4127;47.908;10.850;2024-03-08T08:05:16;15.20;;;11.53;;
8171;SDS011;4127;47.908;10.850;2024-03-08T08:07:44;19.23;;;14.07;;
8171;SDS011;4127;47.908;10.850;2024-03-08T08:10:19;19.07;;;14.50;;
8171;SDS011;4127;47.908;10.850;2024-03-08T08:12:52;16.13;;;12.50;;
8171;SDS011;4127;47.908;10.850;2024-03-08T08:15:19;16.83;;;12.20;;
8171;SDS011;4127;47.908;10.850;2024-03-08T08:17:46;16.80;;;12.87;;
8171;SDS011;4127;47.908;10.850;2024-03-08T08:20:19;19.80;;;14.40;;
8171;SDS011;4127;47.908;10.850;2024-03-08T08:23:02;16.30;;;13.27;;
8171;SDS011;4127;47.908;10.850;2024-03-08T08:25:32;17.57;;;13.43;;
8171;SDS011;4127;47.908;10.850;2024-03-08T08:28:02;15.93;;;12.90;;
8171;SDS011;4127;47.908;10.850;2024-03-08T08:30:39;15.40;;;12.33;;
8171;SDS011;4127;47.908;10.850;2024-03-08T08:33:06;14.20;;;11.33;;
8171;SDS011;4127;47.908;10.850;2024-03-08T08:35:45;21.37;;;14.90;;
8171;SDS011;4127;47.908;10.850;2024-03-08T08:38:14;19.20;;;14.13;;
8171;SDS011;4127;47.908;10.850;2024-03-08T08:41:01;15.87;;;12.43;;
8171;SDS011;4127;47.908;10.850;2024-03-08T08:43:32;16.03;;;12.73;;
8171;SDS011;4127;47.908;10.850;2024-03-08T08:46:01;17.23;;;12.43;;
8171;SDS011;4127;47.908;10.850;2024-03-08T08:48:29;15.13;;;11.93;;
8171;SDS011;4127;47.908;10.850;2024-03-08T08:50:57;14.67;;;11.83;;
8171;SDS011;4127;47.908;10.850;2024-03-08T08:53:28;19.60;;;14.37;;
8171;SDS011;4127;47.908;10.850;2024-03-08T08:55:56;18.33;;;13.23;;
8171;SDS011;4127;47.908;10.850;2024-03-08T08:58:24;18.83;;;14.00;;
8171;SDS011;4127;47.908;10.850;2024-03-08T09:00:56;16.30;;;12.13;;
8171;SDS011;4127;47.908;10.850;2024-03-08T09:03:23;18.13;;;14.27;;
8171;SDS011;4127;47.908;10.850;2024-03-08T09:05:51;18.07;;;13.63;;
8171;SDS011;4127;47.908;10.850;2024-03-08T09:08:18;13.63;;;10.97;;
8171;SDS011;4127;47.908;10.850;2024-03-08T09:10:46;13.87;;;11.07;;
8171;SDS011;4127;47.908;10.850;2024-03-08T09:13:17;16.53;;;12.10;;
8171;SDS011;4127;47.908;10.850;2024-03-08T09:15:56;19.70;;;15.00;;
8171;SDS011;4127;47.908;10.850;2024-03-08T09:18:23;23.37;;;17.30;;
8171;SDS011;4127;47.908;10.850;2024-03-08T09:20:51;22.53;;;16.70;;
8171;SDS011;4127;47.908;10.850;2024-03-08T09:23:20;21.20;;;16.70;;
8171;SDS011;4127;47.908;10.850;2024-03-08T09:26:02;21.27;;;16.67;;
8171;SDS011;4127;47.908;10.850;2024-03-08T09:28:47;22.67;;;17.37;;
8171;SDS011;4127;47.908;10.850;2024-03-08T09:31:33;24.27;;;17.47;;
8171;SDS011;4127;47.908;10.850;2024-03-08T09:34:01;20.10;;;15.93;;
8171;SDS011;4127;47.908;10.850;2024-03-08T09:36:28;22.87;;;17.57;;
8171;SDS011;4127;47.908;10.850;2024-03-08T09:39:04;21.37;;;15.53;;
8171;SDS011;4127;47.908;10.850;2024-03-08T09:41:36;22.27;;;16.67;;
8171;SDS011;4127;47.908;10.850;2024-03-08T09:44:35;17.13;;;14.27;;
8171;SDS011;4127;47.908;10.850;2024-03-08T09:47:07;17.03;;;12.93;;
8171;SDS011;4127;47.908;10.850;2024-03-08T09:49:38;17.40;;;14.13;;
8171;SDS011;4127;47.908;10.850;2024-03-08T09:52:07;16.50;;;12.83;;
8171;SDS011;4127;47.908;10.850;2024-03-08T09:54:34;16.77;;;13.40;;
8171;SDS011;4127;47.908;10.850;2024-03-08T09:57:03;17.87;;;14.03;;
8171;SDS011;4127;47.908;10.850;2024-03-08T09:59:31;19.27;;;15.07;;
8171;SDS011;4127;47.908;10.850;2024-03-08T10:02:04;22.00;;;16.90;;
8171;SDS011;4127;47.908;10.850;2024-03-08T10:04:39;20.93;;;16.07;;
8171;SDS011;4127;47.908;10.850;2024-03-08T10:07:37;20.37;;;15.37;;
8171;SDS011;4127;47.908;10.850;2024-03-08T10:10:17;19.87;;;15.33;;
8171;SDS011;4127;47.908;10.850;2024-03-08T10:12:46;18.47;;;14.93;;
8171;SDS011;4127;47.908;10.850;2024-03-08T10:15:16;22.73;;;16.47;;
8171;SDS011;4127;47.908;10.850;2024-03-08T10:17:44;18.50;;;14.40;;
8171;SDS011;4127;47.908;10.850;2024-03-08T10:20:22;17.20;;;13.40;;
8171;SDS011;4127;47.908;10.850;2024-03-08T10:22:50;18.53;;;14.83;;
8171;SDS011;4127;47.908;10.850;2024-03-08T10:25:32;18.00;;;14.63;;
8171;SDS011;4127;47.908;10.850;2024-03-08T10:28:02;21.40;;;17.10;;
8171;SDS011;4127;47.908;10.850;2024-03-08T10:30:31;21.13;;;15.53;;
8171;SDS011;4127;47.908;10.850;2024-03-08T10:33:02;19.03;;;14.67;;
8171;SDS011;4127;47.908;10.850;2024-03-08T10:35:53;19.30;;;15.73;;
8171;SDS011;4127;47.908;10.850;2024-03-08T10:38:35;19.20;;;14.60;;
8171;SDS011;4127;47.908;10.850;2024-03-08T10:41:14;19.57;;;15.17;;
8171;SDS011;4127;47.908;10.850;2024-03-08T10:49:17;18.57;;;14.40;;
8171;SDS011;4127;47.908;10.850;2024-03-08T10:51:46;18.03;;;14.87;;
8171;SDS011;4127;47.908;10.850;2024-03-08T10:54:18;18.17;;;15.30;;
8171;SDS011;4127;47.908;10.850;2024-03-08T10:56:47;21.17;;;16.53;;
8171;SDS011;4127;47.908;10.850;2024-03-08T10:59:17;18.50;;;14.93;;
8171;SDS011;4127;47.908;10.850;2024-03-08T11:01:45;15.57;;;13.13;;
8171;SDS011;4127;47.908;10.850;2024-03-08T11:04:13;18.73;;;13.40;;
8171;SDS011;4127;47.908;10.850;2024-03-08T11:12:19;13.93;;;11.80;;
8171;SDS011;4127;47.908;10.850;2024-03-08T11:14:57;14.60;;;11.80;;
8171;SDS011;4127;47.908;10.850;2024-03-08T11:19:58;14.33;;;11.47;;
8171;SDS011;4127;47.908;10.850;2024-03-08T11:22:32;15.77;;;13.00;;
8171;SDS011;4127;47.908;10.850;2024-03-08T11:25:08;14.23;;;12.17;;
8171;SDS011;4127;47.908;10.850;2024-03-08T11:27:37;15.40;;;12.27;;
8171;SDS011;4127;47.908;10.850;2024-03-08T11:30:07;16.73;;;12.73;;
8171;SDS011;4127;47.908;10.850;2024-03-08T11:32:46;14.60;;;13.00;;
8171;SDS011;4127;47.908;10.850;2024-03-08T11:35:18;14.80;;;12.47;;
8171;SDS011;4127;47.908;10.850;2024-03-08T11:37:50;13.87;;;12.23;;
8171;SDS011;4127;47.908;10.850;2024-03-08T11:40:17;14.83;;;11.53;;
8171;SDS011;4127;47.908;10.850;2024-03-08T11:42:47;14.40;;;12.90;;
8171;SDS011;4127;47.908;10.850;2024-03-08T11:45:15;14.03;;;11.63;;
8171;SDS011;4127;47.908;10.850;2024-03-08T11:47:44;14.33;;;12.53;;
8171;SDS011;4127;47.908;10.850;2024-03-08T11:50:16;12.23;;;10.93;;
8171;SDS011;4127;47.908;10.850;2024-03-08T11:52:45;15.00;;;12.50;;
8171;SDS011;4127;47.908;10.850;2024-03-08T11:55:13;13.90;;;12.40;;
8171;SDS011;4127;47.908;10.850;2024-03-08T11:57:41;12.50;;;11.10;;
8171;SDS011;4127;47.908;10.850;2024-03-08T12:00:15;14.40;;;12.27;;
8171;SDS011;4127;47.908;10.850;2024-03-08T12:03:05;13.93;;;11.93;;
8171;SDS011;4127;47.908;10.850;2024-03-08T12:05:34;13.43;;;11.50;;
8171;SDS011;4127;47.908;10.850;2024-03-08T12:08:02;12.77;;;11.37;;
8171;SDS011;4127;47.908;10.850;2024-03-08T12:10:29;14.00;;;12.20;;
8171;SDS011;4127;47.908;10.850;2024-03-08T12:12:57;12.93;;;11.53;;
8171;SDS011;4127;47.908;10.850;2024-03-08T12:15:29;12.47;;;11.17;;
8171;SDS011;4127;47.908;10.850;2024-03-08T12:18:00;11.87;;;10.63;;
8171;SDS011;4127;47.908;10.850;2024-03-08T12:20:27;13.53;;;10.80;;
8171;SDS011;4127;47.908;10.850;2024-03-08T12:22:58;13.63;;;12.23;;
8171;SDS011;4127;47.908;10.850;2024-03-08T12:25:32;14.87;;;12.83;;
8171;SDS011;4127;47.908;10.850;2024-03-08T12:30:58;13.50;;;11.67;;
8171;SDS011;4127;47.908;10.850;2024-03-08T12:33:25;13.53;;;11.77;;
8171;SDS011;4127;47.908;10.850;2024-03-08T12:35:54;13.03;;;11.63;;
8171;SDS011;4127;47.908;10.850;2024-03-08T12:38:22;13.73;;;11.50;;
8171;SDS011;4127;47.908;10.850;2024-03-08T12:40:57;14.60;;;12.87;;
8171;SDS011;4127;47.908;10.850;2024-03-08T12:43:25;12.70;;;11.33;;
8171;SDS011;4127;47.908;10.850;2024-03-08T12:45:56;13.33;;;11.50;;
8171;SDS011;4127;47.908;10.850;2024-03-08T12:48:24;12.87;;;11.03;;
8171;SDS011;4127;47.908;10.850;2024-03-08T12:50:51;11.67;;;10.47;;
8171;SDS011;4127;47.908;10.850;2024-03-08T12:53:20;11.93;;;10.67;;
8171;SDS011;4127;47.908;10.850;2024-03-08T12:55:47;12.17;;;10.87;;
8171;SDS011;4127;47.908;10.850;2024-03-08T12:58:14;11.40;;;10.20;;
8171;SDS011;4127;47.908;10.850;2024-03-08T13:00:43;11.23;;;10.13;;
8171;SDS011;4127;47.908;10.850;2024-03-08T13:03:10;11.27;;;10.13;;
8171;SDS011;4127;47.908;10.850;2024-03-08T13:05:38;10.43;;;9.33;;
8171;SDS011;4127;47.908;10.850;2024-03-08T13:08:09;10.10;;;9.13;;
8171;SDS011;4127;47.908;10.850;2024-03-08T13:10:39;10.87;;;9.77;;
8171;SDS011;4127;47.908;10.850;2024-03-08T13:13:10;11.30;;;10.10;;
8171;SDS011;4127;47.908;10.850;2024-03-08T13:15:44;10.47;;;9.33;;
8171;SDS011;4127;47.908;10.850;2024-03-08T13:18:11;9.47;;;8.57;;
8171;SDS011;4127;47.908;10.850;2024-03-08T13:20:39;10.17;;;9.10;;
8171;SDS011;4127;47.908;10.850;2024-03-08T13:23:13;9.50;;;8.47;;
8171;SDS011;4127;47.908;10.850;2024-03-08T13:25:40;9.30;;;8.27;;
8171;SDS011;4127;47.908;10.850;2024-03-08T13:28:08;9.40;;;8.37;;
8171;SDS011;4127;47.908;10.850;2024-03-08T13:30:35;10.03;;;9.03;;
8171;SDS011;4127;47.908;10.850;2024-03-08T13:33:03;9.70;;;8.70;;
8171;SDS011;4127;47.908;10.850;2024-03-08T13:35:31;10.13;;;9.07;;
8171;SDS011;4127;47.908;10.850;2024-03-08T13:37:59;10.10;;;9.07;;
8171;SDS011;4127;47.908;10.850;2024-03-08T13:40:28;9.43;;;8.50;;
8171;SDS011;4127;47.908;10.850;2024-03-08T13:42:55;10.20;;;8.47;;
8171;SDS011;4127;47.908;10.850;2024-03-08T13:45:22;9.70;;;8.70;;
8171;SDS011;4127;47.908;10.850;2024-03-08T13:47:51;9.17;;;8.27;;
8171;SDS011;4127;47.908;10.850;2024-03-08T13:50:20;9.27;;;7.93;;
8171;SDS011;4127;47.908;10.850;2024-03-08T13:52:49;9.33;;;8.30;;
8171;SDS011;4127;47.908;10.850;2024-03-08T13:55:22;10.70;;;8.90;;
8171;SDS011;4127;47.908;10.850;2024-03-08T13:57:50;11.37;;;8.23;;
8171;SDS011;4127;47.908;10.850;2024-03-08T14:00:19;10.17;;;9.17;;
8171;SDS011;4127;47.908;10.850;2024-03-08T14:02:51;11.10;;;8.10;;
8171;SDS011;4127;47.908;10.850;2024-03-08T14:05:20;10.13;;;8.10;;
8171;SDS011;4127;47.908;10.850;2024-03-08T14:07:47;10.00;;;8.00;;
8171;SDS011;4127;47.908;10.850;2024-03-08T14:10:16;9.07;;;8.13;;
8171;SDS011;4127;47.908;10.850;2024-03-08T14:12:47;9.50;;;7.97;;
8171;SDS011;4127;47.908;10.850;2024-03-08T14:15:17;9.60;;;8.60;;
8171;SDS011;4127;47.908;10.850;2024-03-08T14:17:44;9.60;;;8.47;;
8171;SDS011;4127;47.908;10.850;2024-03-08T14:20:13;9.07;;;8.10;;
8171;SDS011;4127;47.908;10.850;2024-03-08T14:22:41;10.33;;;8.50;;
8171;SDS011;4127;47.908;10.850;2024-03-08T14:25:08;10.63;;;9.10;;
8171;SDS011;4127;47.908;10.850;2024-03-08T14:27:44;9.67;;;8.60;;
8171;SDS011;4127;47.908;10.850;2024-03-08T14:30:13;9.63;;;8.57;;
8171;SDS011;4127;47.908;10.850;2024-03-08T14:32:44;9.93;;;8.53;;
8171;SDS011;4127;47.908;10.850;2024-03-08T14:35:14;9.60;;;8.60;;
8171;SDS011;4127;47.908;10.850;2024-03-08T14:37:41;9.60;;;8.57;;
8171;SDS011;4127;47.908;10.850;2024-03-08T14:40:10;11.53;;;9.63;;
8171;SDS011;4127;47.908;10.850;2024-03-08T14:42:37;10.63;;;9.13;;
8171;SDS011;4127;47.908;10.850;2024-03-08T14:45:04;9.33;;;8.17;;
8171;SDS011;4127;47.908;10.850;2024-03-08T14:47:32;10.53;;;9.17;;
8171;SDS011;4127;47.908;10.850;2024-03-08T14:50:00;10.87;;;9.53;;
8171;SDS011;4127;47.908;10.850;2024-03-08T14:52:28;9.93;;;8.93;;
8171;SDS011;4127;47.908;10.850;2024-03-08T14:54:55;10.60;;;9.50;;
8171;SDS011;4127;47.908;10.850;2024-03-08T14:57:23;9.70;;;8.70;;
8171;SDS011;4127;47.908;10.850;2024-03-08T14:59:50;13.60;;;9.67;;
8171;SDS011;4127;47.908;10.850;2024-03-08T15:02:17;13.17;;;9.50;;
8171;SDS011;4127;47.908;10.850;2024-03-08T15:04:48;10.10;;;8.47;;
8171;SDS011;4127;47.908;10.850;2024-03-08T15:07:24;11.17;;;9.87;;
8171;SDS011;4127;47.908;10.850;2024-03-08T15:09:57;13.07;;;10.20;;
8171;SDS011;4127;47.908;10.850;2024-03-08T15:12:24;11.73;;;9.17;;
8171;SDS011;4127;47.908;10.850;2024-03-08T15:14:53;11.63;;;9.53;;
8171;SDS011;4127;47.908;10.850;2024-03-08T15:17:22;10.80;;;9.67;;
8171;SDS011;4127;47.908;10.850;2024-03-08T15:19:49;9.90;;;8.90;;
8171;SDS011;4127;47.908;10.850;2024-03-08T15:22:18;11.43;;;8.63;;
8171;SDS011;4127;47.908;10.850;2024-03-08T15:24:45;11.77;;;9.50;;
8171;SDS011;4127;47.908;10.850;2024-03-08T15:27:12;11.67;;;9.67;;
8171;SDS011;4127;47.908;10.850;2024-03-08T15:29:39;12.43;;;9.73;;
8171;SDS011;4127;47.908;10.850;2024-03-08T15:32:06;10.70;;;9.30;;
8171;SDS011;4127;47.908;10.850;2024-03-08T15:34:36;10.97;;;9.80;;
8171;SDS011;4127;47.908;10.850;2024-03-08T15:37:05;11.73;;;10.13;;
8171;SDS011;4127;47.908;10.850;2024-03-08T15:39:33;14.00;;;10.97;;
8171;SDS011;4127;47.908;10.850;2024-03-08T15:42:00;12.47;;;10.57;;
8171;SDS011;4127;47.908;10.850;2024-03-08T15:44:27;11.87;;;10.07;;
8171;SDS011;4127;47.908;10.850;2024-03-08T15:46:55;12.20;;;10.37;;
8171;SDS011;4127;47.908;10.850;2024-03-08T15:49:22;14.57;;;11.43;;
8171;SDS011;4127;47.908;10.850;2024-03-08T15:51:53;12.57;;;11.23;;
8171;SDS011;4127;47.908;10.850;2024-03-08T15:54:20;13.07;;;11.33;;
8171;SDS011;4127;47.908;10.850;2024-03-08T15:56:48;11.70;;;10.33;;